createdAt,value
2023-04-14T00:01:59.954Z,80.29
2023-04-14T00:04:28.586Z,80.57
2023-04-14T00:06:58.709Z,81.17
2023-04-14T00:09:27.265Z,80.99
2023-04-14T00:11:56.576Z,81.64
2023-04-14T00:14:25.131Z,80.50
2023-04-14T00:16:53.610Z,80.64
2023-04-14T00:19:23.462Z,80.26
2023-04-14T00:21:52.695Z,80.72
2023-04-14T00:24:21.119Z,81.13
2023-04-14T00:26:49.617Z,80.80
2023-04-14T00:29:17.999Z,80.91
2023-04-14T00:31:46.411Z,80.99
2023-04-14T00:34:14.792Z,81.33
2023-04-14T00:36:44.550Z,80.79
2023-04-14T00:39:12.963Z,80.92
2023-04-14T00:41:43.207Z,81.06
2023-04-14T00:44:11.685Z,80.83
2023-04-14T00:46:41.868Z,81.10
2023-04-14T00:49:11.369Z,80.94
2023-04-14T00:51:39.994Z,81.05
2023-04-14T00:54:11.495Z,81.44
2023-04-14T00:56:40.536Z,80.93
2023-04-14T00:59:10.168Z,81.09
2023-04-14T01:01:38.829Z,81.41
2023-04-14T01:04:08.717Z,81.29
2023-04-14T01:06:37.785Z,81.44
2023-04-14T01:09:07.093Z,81.38
2023-04-14T01:11:49.848Z,81.12
2023-04-14T01:14:33.725Z,81.24
2023-04-14T01:17:09.271Z,81.41
2023-04-14T01:19:59.384Z,81.45
2023-04-14T01:22:33.515Z,81.49
2023-04-14T01:25:27.442Z,81.94
2023-04-14T01:28:15.534Z,81.58
2023-04-14T01:31:01.727Z,82.14
2023-04-14T01:33:35.558Z,81.62
2023-04-14T01:36:09.196Z,81.32
2023-04-14T01:38:40.436Z,81.37
2023-04-14T01:41:11.253Z,81.44
2023-04-14T01:43:45.016Z,80.97
2023-04-14T01:46:17.110Z,81.40
2023-04-14T01:48:47.617Z,81.24
2023-04-14T01:51:19.408Z,81.64
2023-04-14T01:53:50.980Z,81.47
2023-04-14T01:56:20.961Z,82.12
2023-04-14T01:58:50.643Z,81.67
2023-04-14T02:01:20.015Z,81.69
2023-04-14T02:03:51.214Z,81.96
2023-04-14T02:06:21.622Z,81.75
2023-04-14T02:08:51.014Z,82.09
2023-04-14T02:11:20.395Z,81.53
2023-04-14T02:13:50.075Z,82.15
2023-04-14T02:16:20.027Z,82.88
2023-04-14T02:18:50.808Z,82.36
2023-04-14T02:21:21.896Z,83.12
2023-04-14T02:23:50.307Z,82.87
2023-04-14T02:26:23.228Z,82.30
2023-04-14T02:28:59.748Z,83.78
2023-04-14T02:31:31.493Z,83.14
2023-04-14T02:34:03.445Z,82.43
2023-04-14T02:36:40.894Z,80.40
2023-04-14T02:39:17.780Z,79.50
2023-04-14T02:41:48.218Z,80.60
2023-04-14T02:44:24.255Z,79.86
2023-04-14T02:47:03.825Z,79.95
2023-04-14T02:49:39.418Z,80.31
2023-04-14T02:52:11.922Z,78.83
2023-04-14T02:54:43.419Z,80.21
2023-04-14T02:57:13.508Z,81.01
2023-04-14T02:59:47.146Z,80.92
2023-04-14T03:02:18.903Z,81.62
2023-04-14T03:04:55.129Z,80.99
2023-04-14T03:07:44.934Z,82.03
2023-04-14T03:10:16.820Z,82.39
2023-04-14T03:12:48.200Z,81.56
2023-04-14T03:15:18.512Z,81.82
2023-04-14T03:17:54.165Z,82.16
2023-04-14T03:20:24.756Z,82.04
2023-04-14T03:23:01.078Z,81.84
2023-04-14T03:25:35.075Z,82.07
2023-04-14T03:28:05.504Z,82.24
2023-04-14T03:30:36.129Z,82.44
2023-04-14T03:33:10.112Z,82.53
2023-04-14T03:35:40.500Z,83.25
2023-04-14T03:38:11.132Z,83.07
2023-04-14T03:40:41.366Z,83.45
2023-04-14T03:43:12.755Z,83.55
2023-04-14T03:45:44.339Z,83.12
2023-04-14T03:48:17.199Z,83.28
2023-04-14T03:50:52.775Z,82.92
2023-04-14T03:53:23.220Z,83.23
2023-04-14T03:55:54.177Z,82.92
2023-04-14T03:58:23.639Z,82.99
2023-04-14T04:00:55.086Z,82.65
2023-04-14T04:03:24.574Z,82.85
2023-04-14T04:05:55.417Z,83.27
2023-04-14T04:08:25.055Z,82.78
2023-04-14T04:10:55.572Z,82.99
2023-04-14T04:13:26.466Z,82.08
2023-04-14T04:15:55.704Z,82.19
2023-04-14T04:18:27.271Z,82.32
2023-04-14T04:20:59.206Z,83.06
2023-04-14T04:23:31.806Z,82.44
2023-04-14T04:26:00.682Z,82.75
2023-04-14T04:28:35.204Z,82.94
2023-04-14T04:31:06.356Z,82.88
2023-04-14T04:33:36.685Z,83.12
2023-04-14T04:36:08.355Z,83.18
2023-04-14T04:38:43.105Z,83.99
2023-04-14T04:41:22.952Z,84.13
2023-04-14T04:43:53.026Z,84.23
2023-04-14T04:46:44.289Z,85.41
2023-04-14T04:49:13.281Z,85.28
2023-04-14T04:51:43.112Z,85.46
2023-04-14T04:54:11.729Z,85.01
2023-04-14T04:56:40.084Z,85.08
2023-04-14T04:59:08.747Z,84.67
2023-04-14T05:01:37.134Z,84.14
2023-04-14T05:04:05.636Z,84.81
2023-04-14T05:06:37.505Z,84.66
2023-04-14T05:09:07.825Z,84.75
2023-04-14T05:11:36.498Z,84.22
2023-04-14T05:14:05.357Z,84.61
2023-04-14T05:16:33.901Z,85.67
2023-04-14T05:19:03.271Z,85.33
2023-04-14T05:21:31.766Z,85.38
2023-04-14T05:24:00.503Z,85.86
2023-04-14T05:26:51.847Z,85.13
2023-04-14T05:29:19.613Z,86.20
2023-04-14T05:31:48.364Z,85.62
2023-04-14T05:34:17.041Z,84.94
2023-04-14T05:36:45.522Z,84.49
2023-04-14T05:39:14.533Z,84.98
2023-04-14T05:41:44.257Z,84.58
2023-04-14T05:44:12.659Z,83.95
2023-04-14T05:46:41.389Z,84.47
2023-04-14T05:49:09.963Z,83.82
2023-04-14T05:51:38.345Z,83.87
2023-04-14T05:54:07.192Z,83.71
2023-04-14T05:56:36.260Z,83.57
2023-04-14T05:59:05.990Z,83.90
2023-04-14T06:01:34.396Z,84.34
2023-04-14T06:04:04.006Z,84.32
2023-04-14T06:06:33.596Z,84.13
2023-04-14T06:09:02.222Z,83.45
2023-04-14T06:11:30.713Z,83.38
2023-04-14T06:14:02.004Z,83.58
2023-04-14T06:16:32.018Z,82.90
2023-04-14T06:19:00.879Z,83.28
2023-04-14T06:21:29.638Z,83.17
2023-04-14T06:23:57.982Z,82.64
2023-04-14T06:26:27.027Z,82.77
2023-04-14T06:28:57.354Z,82.26
2023-04-14T06:31:25.812Z,82.56
2023-04-14T06:33:55.584Z,82.39
2023-04-14T06:36:24.077Z,82.29
2023-04-14T06:38:52.420Z,82.54
2023-04-14T06:41:21.074Z,82.57
2023-04-14T06:43:49.520Z,82.70
2023-04-14T06:46:18.182Z,83.04
2023-04-14T06:48:46.762Z,83.08
2023-04-14T06:51:16.626Z,82.74
2023-04-14T06:53:45.115Z,83.10
2023-04-14T06:56:13.509Z,82.49
2023-04-14T06:58:41.822Z,82.99
2023-04-14T07:01:10.327Z,83.42
2023-04-14T07:03:39.672Z,83.22
2023-04-14T07:06:11.807Z,82.53
2023-04-14T07:08:41.836Z,82.80
2023-04-14T07:11:12.450Z,82.03
2023-04-14T07:13:41.896Z,81.49
2023-04-14T07:16:10.451Z,81.90
2023-04-14T07:18:38.867Z,81.56
2023-04-14T07:21:07.443Z,81.72
2023-04-14T07:23:35.811Z,81.65
2023-04-14T07:26:06.134Z,82.12
2023-04-14T07:28:35.469Z,81.12
2023-04-14T07:31:10.206Z,80.22
2023-04-14T07:33:38.712Z,79.60
2023-04-14T07:36:08.097Z,80.16
2023-04-14T07:38:37.182Z,79.63
2023-04-14T07:41:08.505Z,78.78
2023-04-14T07:43:37.003Z,79.80
2023-04-14T07:46:06.711Z,80.18
2023-04-14T07:48:36.921Z,79.73
2023-04-14T07:51:06.293Z,80.43
2023-04-14T07:53:40.430Z,80.13
2023-04-14T07:56:10.691Z,78.97
2023-04-14T07:58:40.182Z,78.96
2023-04-14T08:01:08.955Z,78.70
2023-04-14T08:03:38.156Z,76.81
2023-04-14T08:06:07.501Z,76.69
2023-04-14T08:08:36.125Z,75.61
2023-04-14T08:11:04.571Z,75.62
2023-04-14T08:13:34.549Z,74.68
2023-04-14T08:16:03.111Z,75.42
2023-04-14T08:18:31.857Z,73.25
2023-04-14T08:21:00.337Z,72.28
2023-04-14T08:23:28.756Z,71.34
2023-04-14T08:25:57.149Z,70.35
2023-04-14T08:28:25.826Z,69.75
2023-04-14T08:30:55.666Z,69.57
2023-04-14T08:33:24.041Z,69.43
2023-04-14T08:35:56.370Z,68.44
2023-04-14T08:38:28.993Z,68.56
2023-04-14T08:40:58.617Z,68.23
2023-04-14T08:43:27.020Z,68.22
2023-04-14T08:45:58.701Z,69.05
2023-04-14T08:48:33.004Z,68.04
2023-04-14T08:51:08.792Z,66.64
2023-04-14T08:53:43.004Z,65.56
2023-04-14T08:56:14.260Z,62.15
2023-04-14T08:58:43.107Z,60.74
2023-04-14T09:01:13.300Z,60.55
2023-04-14T09:03:42.574Z,59.23
2023-04-14T09:06:11.119Z,56.89
2023-04-14T09:08:39.732Z,55.54
2023-04-14T09:11:08.342Z,56.09
2023-04-14T09:13:38.118Z,55.63
2023-04-14T09:16:07.989Z,54.67
2023-04-14T09:18:37.800Z,53.70
2023-04-14T09:21:30.029Z,53.45
2023-04-14T09:23:58.036Z,53.01
2023-04-14T09:26:28.448Z,52.17
2023-04-14T09:28:56.756Z,51.34
2023-04-14T09:31:26.036Z,52.78
2023-04-14T09:33:55.943Z,53.05
2023-04-14T09:36:26.096Z,52.95
2023-04-14T09:38:54.673Z,52.76
2023-04-14T09:41:26.112Z,52.25
2023-04-14T09:43:54.613Z,51.06
2023-04-14T09:46:22.983Z,51.20
2023-04-14T09:48:53.997Z,50.56
2023-04-14T09:51:30.232Z,48.78
2023-04-14T09:54:05.054Z,49.36
2023-04-14T09:56:33.980Z,53.68
2023-04-14T09:59:03.753Z,50.40
2023-04-14T10:01:34.832Z,50.40
2023-04-14T10:04:03.803Z,48.26
2023-04-14T10:06:33.722Z,48.18
2023-04-14T10:09:03.166Z,48.02
2023-04-14T10:11:33.509Z,48.15
2023-04-14T10:14:04.735Z,48.19
2023-04-14T10:16:34.113Z,48.13
2023-04-14T10:19:03.726Z,47.12
2023-04-14T10:21:34.222Z,47.79
2023-04-14T10:24:03.370Z,47.86
2023-04-14T10:26:31.802Z,47.10
2023-04-14T10:29:02.569Z,46.12
2023-04-14T10:31:35.824Z,45.84
2023-04-14T10:34:10.814Z,48.29
2023-04-14T10:36:41.600Z,46.49
2023-04-14T10:39:12.632Z,46.05
2023-04-14T10:41:48.847Z,45.37
2023-04-14T10:44:28.426Z,44.96
2023-04-14T10:46:57.979Z,44.49
2023-04-14T10:49:31.340Z,43.87
2023-04-14T10:52:02.553Z,42.83
2023-04-14T10:54:50.811Z,42.91
2023-04-14T10:57:20.612Z,42.17
2023-04-14T10:59:49.321Z,42.79
2023-04-14T11:02:28.930Z,41.27
2023-04-14T11:05:08.424Z,41.66
2023-04-14T11:07:46.014Z,41.27
2023-04-14T11:10:33.146Z,43.59
2023-04-14T11:13:07.299Z,44.87
2023-04-14T11:15:51.827Z,44.83
2023-04-14T11:18:33.052Z,42.96
2023-04-14T11:21:06.229Z,44.36
2023-04-14T11:23:37.397Z,44.35
2023-04-14T11:26:08.208Z,41.71
2023-04-14T11:28:38.058Z,42.03
2023-04-14T11:31:09.158Z,40.39
2023-04-14T11:33:39.853Z,41.06
2023-04-14T11:36:10.667Z,41.92
2023-04-14T11:38:41.398Z,39.95
2023-04-14T11:41:10.461Z,39.09
2023-04-14T11:43:39.308Z,39.65
2023-04-14T11:46:08.996Z,41.03
2023-04-14T11:48:38.175Z,40.41
2023-04-14T11:51:07.091Z,40.96
2023-04-14T11:53:35.454Z,40.34
2023-04-14T11:56:08.763Z,40.31
2023-04-14T11:58:37.243Z,39.90
2023-04-14T12:01:05.943Z,39.66
2023-04-14T12:03:35.741Z,38.58
2023-04-14T12:06:04.731Z,37.26
2023-04-14T12:08:34.041Z,36.60
2023-04-14T12:11:15.028Z,40.90
2023-04-14T12:13:44.350Z,34.80
2023-04-14T12:16:13.565Z,34.04
2023-04-14T12:18:42.408Z,32.31
2023-04-14T12:21:12.347Z,33.77
2023-04-14T12:23:41.463Z,34.33
2023-04-14T12:26:12.988Z,33.95
2023-04-14T12:28:43.049Z,34.43
2023-04-14T12:31:12.263Z,33.46
2023-04-14T12:33:40.810Z,32.86
2023-04-14T12:36:13.534Z,31.73
2023-04-14T12:38:41.986Z,31.86
2023-04-14T12:41:10.941Z,31.42
2023-04-14T12:43:41.856Z,32.95
2023-04-14T12:46:10.706Z,34.25
2023-04-14T12:48:58.657Z,32.43
2023-04-14T12:51:27.036Z,29.74
2023-04-14T12:54:09.055Z,29.98
2023-04-14T12:56:43.428Z,30.11
2023-04-14T12:59:14.628Z,32.80
2023-04-14T13:01:43.006Z,32.47
2023-04-14T13:04:11.773Z,31.46
2023-04-14T13:06:40.198Z,34.87
2023-04-14T13:09:08.511Z,31.55
2023-04-14T13:11:36.834Z,33.87
2023-04-14T13:14:05.154Z,32.99
2023-04-14T13:16:34.906Z,32.66
2023-04-14T13:19:03.645Z,33.30
2023-04-14T13:21:32.636Z,33.84
2023-04-14T13:24:01.144Z,35.75
2023-04-14T13:26:29.462Z,34.25
2023-04-14T13:28:57.790Z,33.89
2023-04-14T13:31:26.193Z,33.40
2023-04-14T13:33:56.259Z,33.95
2023-04-14T13:36:24.669Z,34.11
2023-04-14T13:38:53.008Z,34.71
2023-04-14T13:41:21.367Z,34.76
2023-04-14T13:43:49.944Z,35.60
2023-04-14T13:46:19.261Z,34.71
2023-04-14T13:48:48.094Z,33.72
2023-04-14T13:51:18.357Z,34.58
2023-04-14T13:53:47.649Z,33.25
2023-04-14T13:56:16.006Z,35.48
2023-04-14T13:58:44.386Z,32.16
2023-04-14T14:01:14.051Z,32.23
2023-04-14T14:03:42.952Z,32.73
2023-04-14T14:06:11.644Z,32.76
2023-04-14T14:08:42.477Z,31.88
2023-04-14T14:11:11.608Z,33.00
2023-04-14T14:13:40.771Z,31.55
2023-04-14T14:16:10.638Z,32.48
2023-04-14T14:18:40.279Z,32.52
2023-04-14T14:21:08.764Z,33.23
2023-04-14T14:23:37.348Z,31.79
2023-04-14T14:26:07.132Z,31.41
2023-04-14T14:28:35.415Z,31.23
2023-04-14T14:31:05.629Z,32.12
2023-04-14T14:33:35.353Z,31.70
2023-04-14T14:36:03.818Z,31.58
2023-04-14T14:38:32.638Z,31.69
2023-04-14T14:41:01.257Z,38.06
2023-04-14T14:43:31.014Z,31.44
2023-04-14T14:46:01.469Z,30.97
2023-04-14T14:48:29.979Z,31.89
2023-04-14T14:50:58.406Z,31.09
2023-04-14T14:53:31.834Z,33.63
2023-04-14T14:56:00.631Z,32.49
2023-04-14T14:58:30.695Z,32.61
2023-04-14T15:00:59.150Z,31.98
2023-04-14T15:03:27.598Z,32.60
2023-04-14T15:05:56.300Z,32.11
2023-04-14T15:08:24.864Z,31.42
2023-04-14T15:10:53.511Z,31.44
2023-04-14T15:13:22.032Z,32.63
2023-04-14T15:15:51.952Z,33.77
2023-04-14T15:18:21.068Z,33.29
2023-04-14T15:20:49.511Z,33.14
2023-04-14T15:23:17.839Z,33.29
2023-04-14T15:25:46.408Z,33.22
2023-04-14T15:28:15.061Z,33.33
2023-04-14T15:30:43.517Z,33.45
2023-04-14T15:33:13.326Z,33.45
2023-04-14T15:35:42.227Z,34.26
2023-04-14T15:38:10.688Z,33.49
2023-04-14T15:40:43.121Z,33.97
2023-04-14T15:43:12.287Z,34.14
2023-04-14T15:45:41.640Z,33.62
2023-04-14T15:48:10.194Z,33.68
2023-04-14T15:50:44.479Z,34.95
2023-04-14T15:53:13.532Z,35.27
2023-04-14T15:55:41.890Z,35.10
2023-04-14T15:58:10.368Z,35.60
2023-04-14T16:00:39.021Z,34.54
2023-04-14T16:03:07.547Z,35.32
2023-04-14T16:05:36.123Z,35.50
2023-04-14T16:08:05.971Z,36.30
2023-04-14T16:10:34.403Z,36.76
2023-04-14T16:13:02.719Z,37.04
2023-04-14T16:15:31.337Z,36.94
2023-04-14T16:18:00.020Z,36.50
2023-04-14T16:20:28.688Z,37.65
2023-04-14T16:22:57.101Z,36.70
2023-04-14T16:25:27.744Z,37.43
2023-04-14T16:27:56.153Z,37.68
2023-04-14T16:30:24.615Z,35.36
2023-04-14T16:32:53.026Z,35.53
2023-04-14T16:35:21.551Z,35.01
2023-04-14T16:37:49.868Z,35.15
2023-04-14T16:40:18.457Z,34.78
2023-04-14T16:42:48.912Z,35.65
2023-04-14T16:45:18.601Z,35.69
2023-04-14T16:47:47.504Z,35.83
2023-04-14T16:50:16.141Z,35.80
2023-04-14T16:52:44.672Z,35.63
2023-04-14T16:55:15.750Z,35.70
2023-04-14T16:57:44.228Z,36.37
2023-04-14T17:00:16.570Z,35.55
2023-04-14T17:02:45.043Z,35.95
2023-04-14T17:05:16.099Z,34.91
2023-04-14T17:07:45.085Z,35.11
2023-04-14T17:10:14.126Z,36.08
2023-04-14T17:12:43.116Z,34.63
2023-04-14T17:15:13.233Z,36.57
2023-04-14T17:17:42.998Z,33.76
2023-04-14T17:20:14.939Z,33.97
2023-04-14T17:22:43.733Z,34.35
2023-04-14T17:25:13.790Z,35.01
2023-04-14T17:27:42.243Z,34.88
2023-04-14T17:30:12.096Z,36.17
2023-04-14T17:32:42.804Z,35.37
2023-04-14T17:35:12.215Z,35.35
2023-04-14T17:37:40.780Z,34.79
2023-04-14T17:40:10.795Z,33.71
2023-04-14T17:42:39.197Z,32.93
2023-04-14T17:45:09.873Z,34.14
2023-04-14T17:47:39.838Z,33.46
2023-04-14T17:50:11.097Z,33.86
2023-04-14T17:52:39.787Z,33.48
2023-04-14T17:55:10.497Z,34.19
2023-04-14T17:57:39.581Z,34.04
2023-04-14T18:00:10.981Z,33.94
2023-04-14T18:02:42.551Z,34.15
2023-04-14T18:05:13.219Z,34.80
2023-04-14T18:07:43.373Z,35.13
2023-04-14T18:10:12.157Z,35.71
2023-04-14T18:12:40.718Z,35.60
2023-04-14T18:15:12.004Z,35.65
2023-04-14T18:17:41.238Z,36.50
2023-04-14T18:20:13.759Z,36.88
2023-04-14T18:22:43.343Z,37.45
2023-04-14T18:25:11.734Z,37.27
2023-04-14T18:30:12.220Z,37.81
2023-04-14T18:32:40.755Z,39.06
2023-04-14T18:35:11.863Z,39.48
2023-04-14T18:37:40.350Z,39.54
2023-04-14T18:40:10.501Z,40.38
2023-04-14T18:42:38.999Z,39.94
2023-04-14T18:45:09.756Z,39.89
2023-04-14T18:47:38.219Z,40.36
2023-04-14T18:50:09.352Z,41.21
2023-04-14T18:52:39.044Z,40.96
2023-04-14T18:55:09.514Z,41.87
2023-04-14T18:57:38.205Z,41.55
2023-04-14T19:00:09.088Z,42.48
2023-04-14T19:02:38.615Z,43.00
2023-04-14T19:05:09.881Z,42.97
2023-04-14T19:07:39.674Z,43.36
2023-04-14T19:10:10.263Z,43.24
2023-04-14T19:12:40.531Z,43.88
2023-04-14T19:15:10.309Z,44.45
2023-04-14T19:17:39.076Z,44.36
2023-04-14T19:20:09.361Z,44.56
2023-04-14T19:22:39.222Z,44.95
2023-04-14T19:25:09.394Z,44.60
2023-04-14T19:27:38.645Z,45.24
2023-04-14T19:30:08.902Z,44.83
2023-04-14T19:32:37.552Z,44.64
2023-04-14T19:35:07.720Z,44.60
2023-04-14T19:37:36.504Z,44.15
2023-04-14T19:40:08.314Z,43.88
2023-04-14T19:42:36.747Z,44.50
2023-04-14T19:45:07.882Z,44.73
2023-04-14T19:47:36.464Z,45.00
2023-04-14T19:50:05.491Z,45.92
2023-04-14T19:52:33.940Z,46.26
2023-04-14T19:55:02.715Z,47.14
2023-04-14T19:57:33.252Z,47.85
2023-04-14T20:00:02.048Z,48.02
2023-04-14T20:02:42.126Z,48.98
2023-04-14T20:05:11.414Z,48.92
2023-04-14T20:07:39.976Z,48.60
2023-04-14T20:10:10.301Z,49.33
2023-04-14T20:12:40.411Z,49.44
2023-04-14T20:15:10.588Z,49.20
2023-04-14T20:17:38.961Z,49.64
2023-04-14T20:20:09.441Z,49.44
2023-04-14T20:22:38.058Z,49.61
2023-04-14T20:25:07.800Z,49.65
2023-04-14T20:27:36.187Z,50.04
2023-04-14T20:30:07.539Z,49.98
2023-04-14T20:32:36.379Z,50.52
2023-04-14T20:35:05.632Z,50.53
2023-04-14T20:37:33.982Z,50.76
2023-04-14T20:40:02.594Z,51.11
2023-04-14T20:42:31.033Z,50.70
2023-04-14T20:44:59.606Z,50.78
2023-04-14T20:47:29.526Z,51.27
2023-04-14T20:49:57.896Z,51.12
2023-04-14T20:52:28.112Z,51.29
2023-04-14T20:54:56.657Z,51.55
2023-04-14T20:57:25.006Z,51.88
2023-04-14T20:59:53.364Z,51.49
2023-04-14T21:02:22.497Z,52.04
2023-04-14T21:04:52.557Z,52.29
2023-04-14T21:07:21.380Z,52.67
2023-04-14T21:09:49.728Z,52.29
2023-04-14T21:12:22.216Z,53.11
2023-04-14T21:15:31.332Z,52.91
2023-04-14T21:17:42.412Z,52.86
2023-04-14T21:20:14.806Z,53.00
2023-04-14T21:22:43.626Z,53.08
2023-04-14T21:25:12.155Z,53.39
2023-04-14T21:27:41.194Z,53.46
2023-04-14T21:30:10.836Z,54.32
2023-04-14T21:32:39.920Z,54.63
2023-04-14T21:35:09.980Z,54.50
2023-04-14T21:37:40.005Z,54.60
2023-04-14T21:40:11.187Z,54.71
2023-04-14T21:42:39.618Z,55.03
2023-04-14T21:45:09.739Z,55.19
2023-04-14T21:47:38.704Z,54.93
2023-04-14T21:50:09.629Z,55.03
2023-04-14T21:52:39.991Z,54.91
2023-04-14T21:55:10.497Z,55.19
2023-04-14T21:57:48.943Z,54.86
2023-04-14T22:00:18.558Z,54.65
2023-04-14T22:02:48.045Z,54.45
2023-04-14T22:05:17.445Z,54.68
2023-04-14T22:07:47.801Z,55.15
2023-04-14T22:10:16.418Z,54.87
2023-04-14T22:12:52.080Z,54.86
2023-04-14T22:15:20.822Z,55.00
2023-04-14T22:17:49.353Z,54.78
2023-04-14T22:20:18.236Z,55.19
2023-04-14T22:22:48.558Z,54.48
2023-04-14T22:25:18.945Z,55.49
2023-04-14T22:27:47.304Z,55.62
2023-04-14T22:30:15.986Z,56.03
2023-04-14T22:32:44.393Z,56.29
2023-04-14T22:35:12.841Z,56.18
2023-04-14T22:37:41.223Z,56.24
2023-04-14T22:40:12.133Z,55.86
2023-04-14T22:42:40.753Z,56.35
2023-04-14T22:45:11.073Z,56.37
2023-04-14T22:47:42.158Z,57.15
2023-04-14T22:50:11.334Z,56.76
2023-04-14T22:52:39.768Z,56.74
2023-04-14T22:55:10.709Z,57.25
2023-04-14T22:57:39.368Z,57.08
2023-04-14T23:00:11.636Z,57.45
2023-04-14T23:02:42.214Z,57.39
2023-04-14T23:05:11.616Z,57.53
2023-04-14T23:07:40.368Z,56.47
2023-04-14T23:10:11.938Z,57.70
2023-04-14T23:12:40.368Z,57.12
2023-04-14T23:15:09.773Z,57.73
2023-04-14T23:17:38.135Z,57.95
2023-04-14T23:20:08.162Z,57.66
2023-04-14T23:22:38.650Z,57.51
2023-04-14T23:25:09.219Z,58.23
2023-04-14T23:27:38.926Z,58.37
2023-04-14T23:30:10.300Z,58.94
2023-04-14T23:32:38.755Z,58.48
2023-04-14T23:35:09.374Z,57.90
2023-04-14T23:37:38.855Z,58.59
2023-04-14T23:40:09.126Z,58.40
2023-04-14T23:42:38.908Z,59.58
2023-04-14T23:45:09.428Z,58.95
2023-04-14T23:47:38.088Z,59.04
2023-04-14T23:50:08.601Z,59.15
2023-04-14T23:52:37.024Z,59.34
2023-04-14T23:55:06.174Z,60.18
2023-04-14T23:57:34.556Z,60.01
